sensor_id;sensor_type;location;lat;lon;timestamp;temperature;humidity
56308;DHT22;42217;50.422;7.210;2023-04-03T00:01:01;2.10;99.90
56308;DHT22;42217;50.422;7.210;2023-04-03T00:03:26;2.10;99.90
56308;DHT22;42217;50.422;7.210;2023-04-03T00:05:52;2.30;99.90
56308;DHT22;42217;50.422;7.210;2023-04-03T00:08:18;2.60;99.90
56308;DHT22;42217;50.422;7.210;2023-04-03T00:10:44;2.70;99.90
56308;DHT22;42217;50.422;7.210;2023-04-03T00:13:11;2.70;99.90
56308;DHT22;42217;50.422;7.210;2023-04-03T00:15:37;2.80;99.90
56308;DHT22;42217;50.422;7.210;2023-04-03T00:18:03;2.80;99.90
56308;DHT22;42217;50.422;7.210;2023-04-03T00:20:29;2.80;99.90
56308;DHT22;42217;50.422;7.210;2023-04-03T00:22:55;2.90;99.90
56308;DHT22;42217;50.422;7.210;2023-04-03T00:25:21;3.00;99.90
56308;DHT22;42217;50.422;7.210;2023-04-03T00:27:47;2.90;99.90
56308;DHT22;42217;50.422;7.210;2023-04-03T00:30:16;2.80;99.90
56308;DHT22;42217;50.422;7.210;2023-04-03T00:32:42;2.60;99.90
56308;DHT22;42217;50.422;7.210;2023-04-03T00:35:08;2.80;99.90
56308;DHT22;42217;50.422;7.210;2023-04-03T00:37:34;2.80;99.90
56308;DHT22;42217;50.422;7.210;2023-04-03T00:40:00;2.80;99.90
56308;DHT22;42217;50.422;7.210;2023-04-03T00:42:26;2.80;99.90
56308;DHT22;42217;50.422;7.210;2023-04-03T00:47:21;2.70;99.90
56308;DHT22;42217;50.422;7.210;2023-04-03T00:49:48;2.60;99.90
56308;DHT22;42217;50.422;7.210;2023-04-03T00:52:17;2.50;99.90
56308;DHT22;42217;50.422;7.210;2023-04-03T00:54:46;2.40;99.90
56308;DHT22;42217;50.422;7.210;2023-04-03T00:57:13;2.50;99.90
56308;DHT22;42217;50.422;7.210;2023-04-03T00:59:44;2.40;99.90
56308;DHT22;42217;50.422;7.210;2023-04-03T01:02:12;2.30;99.90
56308;DHT22;42217;50.422;7.210;2023-04-03T01:04:40;2.20;99.90
56308;DHT22;42217;50.422;7.210;2023-04-03T01:07:16;2.20;99.90
56308;DHT22;42217;50.422;7.210;2023-04-03T01:09:42;2.10;99.90
56308;DHT22;42217;50.422;7.210;2023-04-03T01:14:50;2.00;99.90
56308;DHT22;42217;50.422;7.210;2023-04-03T01:17:55;2.20;99.90
56308;DHT22;42217;50.422;7.210;2023-04-03T01:28:06;2.40;99.90
56308;DHT22;42217;50.422;7.210;2023-04-03T01:30:45;2.30;99.90
56308;DHT22;42217;50.422;7.210;2023-04-03T01:33:12;2.30;99.90
56308;DHT22;42217;50.422;7.210;2023-04-03T01:35:38;2.20;99.90
56308;DHT22;42217;50.422;7.210;2023-04-03T01:38:03;2.20;99.90
56308;DHT22;42217;50.422;7.210;2023-04-03T01:40:29;2.20;99.90
56308;DHT22;42217;50.422;7.210;2023-04-03T01:42:55;2.10;99.90
56308;DHT22;42217;50.422;7.210;2023-04-03T01:45:21;2.10;99.90
56308;DHT22;42217;50.422;7.210;2023-04-03T01:47:47;2.10;99.90
56308;DHT22;42217;50.422;7.210;2023-04-03T01:50:12;2.10;99.90
56308;DHT22;42217;50.422;7.210;2023-04-03T01:52:38;2.10;99.90
56308;DHT22;42217;50.422;7.210;2023-04-03T01:55:04;2.00;99.90
56308;DHT22;42217;50.422;7.210;2023-04-03T01:57:30;2.00;99.90
56308;DHT22;42217;50.422;7.210;2023-04-03T01:59:55;2.00;99.90
56308;DHT22;42217;50.422;7.210;2023-04-03T02:02:21;2.10;99.90
56308;DHT22;42217;50.422;7.210;2023-04-03T02:04:47;2.10;99.90
56308;DHT22;42217;50.422;7.210;2023-04-03T02:07:12;2.00;99.90
56308;DHT22;42217;50.422;7.210;2023-04-03T02:09:38;2.00;99.90
56308;DHT22;42217;50.422;7.210;2023-04-03T02:12:04;1.90;99.90
56308;DHT22;42217;50.422;7.210;2023-04-03T02:14:30;1.80;99.90
56308;DHT22;42217;50.422;7.210;2023-04-03T02:16:55;1.90;99.90
56308;DHT22;42217;50.422;7.210;2023-04-03T02:19:21;1.80;99.90
56308;DHT22;42217;50.422;7.210;2023-04-03T02:21:47;1.70;99.90
56308;DHT22;42217;50.422;7.210;2023-04-03T02:24:13;1.60;99.90
56308;DHT22;42217;50.422;7.210;2023-04-03T02:26:38;1.50;99.90
56308;DHT22;42217;50.422;7.210;2023-04-03T02:29:04;1.60;99.90
56308;DHT22;42217;50.422;7.210;2023-04-03T02:31:31;1.50;99.90
56308;DHT22;42217;50.422;7.210;2023-04-03T02:33:57;1.60;99.90
56308;DHT22;42217;50.422;7.210;2023-04-03T02:36:22;1.60;99.90
56308;DHT22;42217;50.422;7.210;2023-04-03T02:38:48;1.60;99.90
56308;DHT22;42217;50.422;7.210;2023-04-03T02:41:14;1.70;99.90
56308;DHT22;42217;50.422;7.210;2023-04-03T02:43:40;1.90;99.90
56308;DHT22;42217;50.422;7.210;2023-04-03T02:46:06;2.10;99.90
56308;DHT22;42217;50.422;7.210;2023-04-03T02:48:32;2.10;99.90
56308;DHT22;42217;50.422;7.210;2023-04-03T02:50:58;2.10;99.90
56308;DHT22;42217;50.422;7.210;2023-04-03T02:53:23;2.00;99.90
56308;DHT22;42217;50.422;7.210;2023-04-03T02:55:49;1.90;99.90
56308;DHT22;42217;50.422;7.210;2023-04-03T02:58:15;1.90;99.90
56308;DHT22;42217;50.422;7.210;2023-04-03T03:00:41;1.90;99.90
56308;DHT22;42217;50.422;7.210;2023-04-03T03:03:07;1.80;99.90
56308;DHT22;42217;50.422;7.210;2023-04-03T03:05:33;1.80;99.90
56308;DHT22;42217;50.422;7.210;2023-04-03T03:07:59;1.90;99.90
56308;DHT22;42217;50.422;7.210;2023-04-03T03:10:25;1.90;99.90
56308;DHT22;42217;50.422;7.210;2023-04-03T03:12:51;2.20;99.90
56308;DHT22;42217;50.422;7.210;2023-04-03T03:15:17;2.20;99.90
56308;DHT22;42217;50.422;7.210;2023-04-03T03:17:45;2.20;99.90
56308;DHT22;42217;50.422;7.210;2023-04-03T03:20:11;2.20;99.90
56308;DHT22;42217;50.422;7.210;2023-04-03T03:22:38;2.30;99.90
56308;DHT22;42217;50.422;7.210;2023-04-03T03:25:04;2.30;99.90
56308;DHT22;42217;50.422;7.210;2023-04-03T03:27:30;2.30;99.90
56308;DHT22;42217;50.422;7.210;2023-04-03T03:29:56;2.30;99.90
56308;DHT22;42217;50.422;7.210;2023-04-03T03:32:21;2.30;99.90
56308;DHT22;42217;50.422;7.210;2023-04-03T03:34:47;2.20;99.90
56308;DHT22;42217;50.422;7.210;2023-04-03T03:37:13;2.10;99.90
56308;DHT22;42217;50.422;7.210;2023-04-03T03:39:39;2.00;99.90
56308;DHT22;42217;50.422;7.210;2023-04-03T03:42:05;2.00;99.90
56308;DHT22;42217;50.422;7.210;2023-04-03T03:44:30;2.00;99.90
56308;DHT22;42217;50.422;7.210;2023-04-03T03:46:56;1.90;99.90
56308;DHT22;42217;50.422;7.210;2023-04-03T03:49:22;1.80;99.90
56308;DHT22;42217;50.422;7.210;2023-04-03T03:51:48;1.60;99.90
56308;DHT22;42217;50.422;7.210;2023-04-03T03:54:14;1.40;99.90
56308;DHT22;42217;50.422;7.210;2023-04-03T03:56:40;1.50;99.90
56308;DHT22;42217;50.422;7.210;2023-04-03T03:59:06;1.50;99.90
56308;DHT22;42217;50.422;7.210;2023-04-03T04:01:32;1.50;99.90
56308;DHT22;42217;50.422;7.210;2023-04-03T04:03:58;1.50;99.90
56308;DHT22;42217;50.422;7.210;2023-04-03T04:06:23;1.50;99.90
56308;DHT22;42217;50.422;7.210;2023-04-03T04:08:49;1.60;99.90
56308;DHT22;42217;50.422;7.210;2023-04-03T04:11:15;1.70;99.90
56308;DHT22;42217;50.422;7.210;2023-04-03T04:13:41;1.70;99.90
56308;DHT22;42217;50.422;7.210;2023-04-03T04:16:07;1.80;99.90
56308;DHT22;42217;50.422;7.210;2023-04-03T04:18:33;1.70;99.90
56308;DHT22;42217;50.422;7.210;2023-04-03T04:20:59;1.70;99.90
56308;DHT22;42217;50.422;7.210;2023-04-03T04:23:25;1.60;99.90
56308;DHT22;42217;50.422;7.210;2023-04-03T04:25:51;1.60;99.90
56308;DHT22;42217;50.422;7.210;2023-04-03T04:28:17;1.50;99.90
56308;DHT22;42217;50.422;7.210;2023-04-03T04:30:44;1.60;99.90
56308;DHT22;42217;50.422;7.210;2023-04-03T04:33:10;1.90;99.90
56308;DHT22;42217;50.422;7.210;2023-04-03T04:35:36;1.80;99.90
56308;DHT22;42217;50.422;7.210;2023-04-03T04:38:02;1.90;99.90
56308;DHT22;42217;50.422;7.210;2023-04-03T04:40:28;1.70;99.90
56308;DHT22;42217;50.422;7.210;2023-04-03T04:42:55;1.60;99.90
56308;DHT22;42217;50.422;7.210;2023-04-03T04:45:20;1.60;99.90
56308;DHT22;42217;50.422;7.210;2023-04-03T04:47:46;1.60;99.90
56308;DHT22;42217;50.422;7.210;2023-04-03T04:50:12;1.50;99.90
56308;DHT22;42217;50.422;7.210;2023-04-03T04:52:38;1.40;99.90
56308;DHT22;42217;50.422;7.210;2023-04-03T04:55:04;1.30;99.90
56308;DHT22;42217;50.422;7.210;2023-04-03T04:57:30;1.20;99.90
56308;DHT22;42217;50.422;7.210;2023-04-03T04:59:56;1.10;99.90
56308;DHT22;42217;50.422;7.210;2023-04-03T05:02:22;0.90;99.90
56308;DHT22;42217;50.422;7.210;2023-04-03T05:04:47;0.90;99.90
56308;DHT22;42217;50.422;7.210;2023-04-03T05:07:15;0.80;99.90
56308;DHT22;42217;50.422;7.210;2023-04-03T05:09:41;0.80;99.90
56308;DHT22;42217;50.422;7.210;2023-04-03T05:12:07;0.90;99.90
56308;DHT22;42217;50.422;7.210;2023-04-03T05:14:33;0.90;99.90
56308;DHT22;42217;50.422;7.210;2023-04-03T05:16:59;0.70;99.90
56308;DHT22;42217;50.422;7.210;2023-04-03T05:19:25;0.50;99.90
56308;DHT22;42217;50.422;7.210;2023-04-03T05:21:50;0.40;99.90
56308;DHT22;42217;50.422;7.210;2023-04-03T05:24:16;0.30;99.90
56308;DHT22;42217;50.422;7.210;2023-04-03T05:26:43;0.40;99.90
56308;DHT22;42217;50.422;7.210;2023-04-03T05:29:09;0.30;99.90
56308;DHT22;42217;50.422;7.210;2023-04-03T05:31:38;0.20;99.90
56308;DHT22;42217;50.422;7.210;2023-04-03T05:34:04;0.20;99.90
56308;DHT22;42217;50.422;7.210;2023-04-03T05:36:30;0.30;99.90
56308;DHT22;42217;50.422;7.210;2023-04-03T05:38:56;0.20;99.90
56308;DHT22;42217;50.422;7.210;2023-04-03T05:41:22;0.20;99.90
56308;DHT22;42217;50.422;7.210;2023-04-03T05:43:48;0.10;99.90
56308;DHT22;42217;50.422;7.210;2023-04-03T05:46:19;0.10;99.90
56308;DHT22;42217;50.422;7.210;2023-04-03T05:48:45;0.00;99.90
56308;DHT22;42217;50.422;7.210;2023-04-03T05:51:17;-0.10;99.90
56308;DHT22;42217;50.422;7.210;2023-04-03T05:53:43;-0.10;99.90
56308;DHT22;42217;50.422;7.210;2023-04-03T05:56:10;0.30;99.90
56308;DHT22;42217;50.422;7.210;2023-04-03T05:58:36;0.50;99.90
56308;DHT22;42217;50.422;7.210;2023-04-03T06:01:02;0.70;99.90
56308;DHT22;42217;50.422;7.210;2023-04-03T06:03:28;0.80;99.90
56308;DHT22;42217;50.422;7.210;2023-04-03T06:05:54;0.90;99.90
56308;DHT22;42217;50.422;7.210;2023-04-03T06:08:20;1.00;99.90
56308;DHT22;42217;50.422;7.210;2023-04-03T06:10:46;1.10;99.90
56308;DHT22;42217;50.422;7.210;2023-04-03T06:13:12;1.20;99.90
56308;DHT22;42217;50.422;7.210;2023-04-03T06:15:38;1.20;99.90
56308;DHT22;42217;50.422;7.210;2023-04-03T06:18:05;1.40;99.90
56308;DHT22;42217;50.422;7.210;2023-04-03T06:20:32;1.50;99.90
56308;DHT22;42217;50.422;7.210;2023-04-03T06:22:57;1.60;99.90
56308;DHT22;42217;50.422;7.210;2023-04-03T06:25:23;1.70;99.90
56308;DHT22;42217;50.422;7.210;2023-04-03T06:27:49;1.80;99.90
56308;DHT22;42217;50.422;7.210;2023-04-03T06:30:17;1.80;99.90
56308;DHT22;42217;50.422;7.210;2023-04-03T06:32:46;1.80;99.90
56308;DHT22;42217;50.422;7.210;2023-04-03T06:35:12;1.90;99.90
56308;DHT22;42217;50.422;7.210;2023-04-03T06:37:37;2.10;99.90
56308;DHT22;42217;50.422;7.210;2023-04-03T06:40:04;2.20;99.90
56308;DHT22;42217;50.422;7.210;2023-04-03T06:42:30;2.20;99.90
56308;DHT22;42217;50.422;7.210;2023-04-03T06:44:55;2.20;99.90
56308;DHT22;42217;50.422;7.210;2023-04-03T06:47:21;2.30;99.90
56308;DHT22;42217;50.422;7.210;2023-04-03T06:49:47;2.40;99.90
56308;DHT22;42217;50.422;7.210;2023-04-03T06:52:13;2.50;99.90
56308;DHT22;42217;50.422;7.210;2023-04-03T06:54:39;2.60;99.90
56308;DHT22;42217;50.422;7.210;2023-04-03T06:57:06;2.70;99.90
56308;DHT22;42217;50.422;7.210;2023-04-03T06:59:32;2.80;99.90
56308;DHT22;42217;50.422;7.210;2023-04-03T07:01:58;2.80;99.90
56308;DHT22;42217;50.422;7.210;2023-04-03T07:04:25;2.90;99.90
56308;DHT22;42217;50.422;7.210;2023-04-03T07:06:52;3.00;99.90
56308;DHT22;42217;50.422;7.210;2023-04-03T07:09:18;3.00;99.90
56308;DHT22;42217;50.422;7.210;2023-04-03T07:11:44;3.10;99.90
56308;DHT22;42217;50.422;7.210;2023-04-03T07:14:10;3.20;99.90
56308;DHT22;42217;50.422;7.210;2023-04-03T07:16:36;3.30;99.90
56308;DHT22;42217;50.422;7.210;2023-04-03T07:19:03;3.40;99.90
56308;DHT22;42217;50.422;7.210;2023-04-03T07:21:29;3.50;99.90
56308;DHT22;42217;50.422;7.210;2023-04-03T07:23:55;3.50;99.90
56308;DHT22;42217;50.422;7.210;2023-04-03T07:26:23;3.60;99.90
56308;DHT22;42217;50.422;7.210;2023-04-03T07:28:49;3.70;99.90
56308;DHT22;42217;50.422;7.210;2023-04-03T07:31:16;3.80;99.90
56308;DHT22;42217;50.422;7.210;2023-04-03T07:33:43;3.80;99.90
56308;DHT22;42217;50.422;7.210;2023-04-03T07:36:14;3.80;99.90
56308;DHT22;42217;50.422;7.210;2023-04-03T07:38:40;3.90;99.90
56308;DHT22;42217;50.422;7.210;2023-04-03T07:41:06;3.90;99.90
56308;DHT22;42217;50.422;7.210;2023-04-03T07:43:32;3.90;99.90
56308;DHT22;42217;50.422;7.210;2023-04-03T07:45:59;3.90;94.50
56308;DHT22;42217;50.422;7.210;2023-04-03T07:48:26;4.00;96.30
56308;DHT22;42217;50.422;7.210;2023-04-03T07:50:52;4.10;99.60
56308;DHT22;42217;50.422;7.210;2023-04-03T07:53:18;4.20;95.80
56308;DHT22;42217;50.422;7.210;2023-04-03T07:55:47;4.30;94.30
56308;DHT22;42217;50.422;7.210;2023-04-03T07:58:15;4.40;95.90
56308;DHT22;42217;50.422;7.210;2023-04-03T08:00:41;4.50;96.50
56308;DHT22;42217;50.422;7.210;2023-04-03T08:03:09;4.60;90.00
56308;DHT22;42217;50.422;7.210;2023-04-03T08:05:47;4.60;98.10
56308;DHT22;42217;50.422;7.210;2023-04-03T08:08:15;4.60;92.50
56308;DHT22;42217;50.422;7.210;2023-04-03T08:10:42;4.70;92.90
56308;DHT22;42217;50.422;7.210;2023-04-03T08:13:08;4.70;90.50
56308;DHT22;42217;50.422;7.210;2023-04-03T08:15:35;4.70;80.90
56308;DHT22;42217;50.422;7.210;2023-04-03T08:18:01;4.70;90.60
56308;DHT22;42217;50.422;7.210;2023-04-03T08:20:27;4.80;86.40
56308;DHT22;42217;50.422;7.210;2023-04-03T08:22:53;4.80;90.00
56308;DHT22;42217;50.422;7.210;2023-04-03T08:25:19;4.90;93.20
56308;DHT22;42217;50.422;7.210;2023-04-03T08:27:45;5.00;75.20
56308;DHT22;42217;50.422;7.210;2023-04-03T08:30:13;5.10;85.60
56308;DHT22;42217;50.422;7.210;2023-04-03T08:32:39;5.20;76.20
56308;DHT22;42217;50.422;7.210;2023-04-03T08:35:07;5.30;68.50
56308;DHT22;42217;50.422;7.210;2023-04-03T08:37:36;5.50;65.10
56308;DHT22;42217;50.422;7.210;2023-04-03T08:40:04;5.80;72.10
56308;DHT22;42217;50.422;7.210;2023-04-03T08:43:01;6.10;80.00
56308;DHT22;42217;50.422;7.210;2023-04-03T08:45:49;6.30;49.70
56308;DHT22;42217;50.422;7.210;2023-04-03T08:50:58;5.90;24.90
56308;DHT22;42217;50.422;7.210;2023-04-03T08:53:28;5.90;37.80
56308;DHT22;42217;50.422;7.210;2023-04-03T08:55:58;5.70;36.90
56308;DHT22;42217;50.422;7.210;2023-04-03T08:58:30;5.60;39.80
56308;DHT22;42217;50.422;7.210;2023-04-03T09:01:00;5.40;51.90
56308;DHT22;42217;50.422;7.210;2023-04-03T09:03:34;5.30;47.70
56308;DHT22;42217;50.422;7.210;2023-04-03T09:06:23;5.60;65.70
56308;DHT22;42217;50.422;7.210;2023-04-03T09:25:43;7.70;1.00
56308;DHT22;42217;50.422;7.210;2023-04-03T09:28:09;7.60;1.00
56308;DHT22;42217;50.422;7.210;2023-04-03T09:30:35;7.30;1.00
56308;DHT22;42217;50.422;7.210;2023-04-03T09:33:02;7.00;1.00
56308;DHT22;42217;50.422;7.210;2023-04-03T09:35:31;6.80;1.00
56308;DHT22;42217;50.422;7.210;2023-04-03T09:43:23;6.40;1.00
56308;DHT22;42217;50.422;7.210;2023-04-03T09:45:52;6.30;1.00
56308;DHT22;42217;50.422;7.210;2023-04-03T09:48:21;6.30;1.00
56308;DHT22;42217;50.422;7.210;2023-04-03T09:51:02;6.30;1.00
56308;DHT22;42217;50.422;7.210;2023-04-03T09:53:32;6.50;1.00
56308;DHT22;42217;50.422;7.210;2023-04-03T09:56:00;6.50;1.00
56308;DHT22;42217;50.422;7.210;2023-04-03T09:58:37;6.40;1.00
56308;DHT22;42217;50.422;7.210;2023-04-03T10:01:04;6.50;1.00
56308;DHT22;42217;50.422;7.210;2023-04-03T10:03:36;6.80;12.20
56308;DHT22;42217;50.422;7.210;2023-04-03T10:06:24;6.90;1.00
56308;DHT22;42217;50.422;7.210;2023-04-03T10:09:23;7.20;1.00
56308;DHT22;42217;50.422;7.210;2023-04-03T10:12:08;7.60;1.00
56308;DHT22;42217;50.422;7.210;2023-04-03T10:14:40;7.70;1.00
56308;DHT22;42217;50.422;7.210;2023-04-03T10:25:32;8.20;1.00
56308;DHT22;42217;50.422;7.210;2023-04-03T10:28:08;8.10;1.00
56308;DHT22;42217;50.422;7.210;2023-04-03T10:31:03;8.30;1.00
56308;DHT22;42217;50.422;7.210;2023-04-03T10:39:20;8.30;1.00
56308;DHT22;42217;50.422;7.210;2023-04-03T10:42:08;7.90;1.00
56308;DHT22;42217;50.422;7.210;2023-04-03T10:55:53;6.40;1.00
56308;DHT22;42217;50.422;7.210;2023-04-03T10:58:32;6.40;1.00
56308;DHT22;42217;50.422;7.210;2023-04-03T11:01:09;6.30;1.00
56308;DHT22;42217;50.422;7.210;2023-04-03T11:03:44;6.30;1.00
56308;DHT22;42217;50.422;7.210;2023-04-03T11:06:16;6.40;1.00
56308;DHT22;42217;50.422;7.210;2023-04-03T11:09:02;6.20;1.00
56308;DHT22;42217;50.422;7.210;2023-04-03T11:11:37;6.00;1.00
56308;DHT22;42217;50.422;7.210;2023-04-03T11:14:33;6.20;1.00
56308;DHT22;42217;50.422;7.210;2023-04-03T11:20:10;6.20;1.00
56308;DHT22;42217;50.422;7.210;2023-04-03T11:22:42;6.10;1.00
56308;DHT22;42217;50.422;7.210;2023-04-03T11:27:44;6.10;1.00
56308;DHT22;42217;50.422;7.210;2023-04-03T11:30:20;6.10;1.00
56308;DHT22;42217;50.422;7.210;2023-04-03T11:35:47;6.30;1.00
56308;DHT22;42217;50.422;7.210;2023-04-03T11:38:30;6.10;1.00
56308;DHT22;42217;50.422;7.210;2023-04-03T11:41:00;6.00;1.00
56308;DHT22;42217;50.422;7.210;2023-04-03T11:43:31;6.20;1.00
56308;DHT22;42217;50.422;7.210;2023-04-03T11:46:00;6.30;1.00
56308;DHT22;42217;50.422;7.210;2023-04-03T11:53:41;6.80;1.00
56308;DHT22;42217;50.422;7.210;2023-04-03T12:01:56;7.50;1.00
56308;DHT22;42217;50.422;7.210;2023-04-03T12:04:24;7.40;99.90
56308;DHT22;42217;50.422;7.210;2023-04-03T12:07:12;7.20;99.90
56308;DHT22;42217;50.422;7.210;2023-04-03T12:14:52;6.60;99.90
56308;DHT22;42217;50.422;7.210;2023-04-03T12:17:25;6.70;1.00
56308;DHT22;42217;50.422;7.210;2023-04-03T12:19:52;6.90;1.00
56308;DHT22;42217;50.422;7.210;2023-04-03T12:22:20;7.10;1.00
56308;DHT22;42217;50.422;7.210;2023-04-03T12:24:51;7.20;99.90
56308;DHT22;42217;50.422;7.210;2023-04-03T12:35:23;7.10;99.90
56308;DHT22;42217;50.422;7.210;2023-04-03T12:40:46;7.10;99.90
56308;DHT22;42217;50.422;7.210;2023-04-03T12:46:11;7.30;99.90
56308;DHT22;42217;50.422;7.210;2023-04-03T12:48:57;7.30;1.00
56308;DHT22;42217;50.422;7.210;2023-04-03T12:51:40;7.10;99.90
56308;DHT22;42217;50.422;7.210;2023-04-03T12:54:22;7.30;99.90
56308;DHT22;42217;50.422;7.210;2023-04-03T12:56:50;7.40;1.00
56308;DHT22;42217;50.422;7.210;2023-04-03T12:59:18;7.50;99.90
56308;DHT22;42217;50.422;7.210;2023-04-03T13:01:44;7.40;1.00
56308;DHT22;42217;50.422;7.210;2023-04-03T13:04:18;7.60;1.00
56308;DHT22;42217;50.422;7.210;2023-04-03T13:06:44;7.70;1.00
56308;DHT22;42217;50.422;7.210;2023-04-03T13:09:22;7.80;99.90
56308;DHT22;42217;50.422;7.210;2023-04-03T13:11:50;7.80;1.00
56308;DHT22;42217;50.422;7.210;2023-04-03T13:14:22;7.70;99.90
56308;DHT22;42217;50.422;7.210;2023-04-03T13:17:03;7.90;99.90
56308;DHT22;42217;50.422;7.210;2023-04-03T13:19:30;7.80;1.00
56308;DHT22;42217;50.422;7.210;2023-04-03T13:22:07;7.80;99.90
56308;DHT22;42217;50.422;7.210;2023-04-03T13:24:36;8.20;52.20
56308;DHT22;42217;50.422;7.210;2023-04-03T13:27:04;8.30;1.00
56308;DHT22;42217;50.422;7.210;2023-04-03T13:29:33;8.20;99.90
56308;DHT22;42217;50.422;7.210;2023-04-03T13:32:01;8.20;1.00
56308;DHT22;42217;50.422;7.210;2023-04-03T13:34:42;8.50;18.40
56308;DHT22;42217;50.422;7.210;2023-04-03T13:37:26;8.80;1.00
56308;DHT22;42217;50.422;7.210;2023-04-03T13:40:11;9.10;1.00
56308;DHT22;42217;50.422;7.210;2023-04-03T13:42:41;9.00;99.90
56308;DHT22;42217;50.422;7.210;2023-04-03T13:45:27;9.70;1.00
56308;DHT22;42217;50.422;7.210;2023-04-03T13:48:18;11.00;99.90
56308;DHT22;42217;50.422;7.210;2023-04-03T13:51:04;12.20;99.90
56308;DHT22;42217;50.422;7.210;2023-04-03T13:53:32;12.80;1.00
56308;DHT22;42217;50.422;7.210;2023-04-03T13:56:09;13.60;82.10
56308;DHT22;42217;50.422;7.210;2023-04-03T13:58:36;14.10;99.90
56308;DHT22;42217;50.422;7.210;2023-04-03T14:01:18;14.50;72.50
56308;DHT22;42217;50.422;7.210;2023-04-03T14:03:58;14.90;1.00
56308;DHT22;42217;50.422;7.210;2023-04-03T14:06:29;15.50;1.00
56308;DHT22;42217;50.422;7.210;2023-04-03T14:08:55;15.70;99.90
56308;DHT22;42217;50.422;7.210;2023-04-03T14:11:28;16.30;99.90
56308;DHT22;42217;50.422;7.210;2023-04-03T14:14:01;16.80;99.90
56308;DHT22;42217;50.422;7.210;2023-04-03T14:16:33;16.90;99.90
56308;DHT22;42217;50.422;7.210;2023-04-03T14:19:02;17.20;99.90
56308;DHT22;42217;50.422;7.210;2023-04-03T14:21:28;17.10;84.00
56308;DHT22;42217;50.422;7.210;2023-04-03T14:23:54;17.10;96.00
56308;DHT22;42217;50.422;7.210;2023-04-03T14:26:23;17.30;56.10
56308;DHT22;42217;50.422;7.210;2023-04-03T14:28:52;17.20;7.40
56308;DHT22;42217;50.422;7.210;2023-04-03T14:31:20;17.10;29.10
56308;DHT22;42217;50.422;7.210;2023-04-03T14:33:46;17.60;35.30
56308;DHT22;42217;50.422;7.210;2023-04-03T14:36:21;18.20;5.80
56308;DHT22;42217;50.422;7.210;2023-04-03T14:38:49;18.00;1.00
56308;DHT22;42217;50.422;7.210;2023-04-03T14:41:19;18.10;1.00
56308;DHT22;42217;50.422;7.210;2023-04-03T14:43:46;17.90;1.00
56308;DHT22;42217;50.422;7.210;2023-04-03T14:46:24;17.80;1.00
56308;DHT22;42217;50.422;7.210;2023-04-03T14:48:51;17.50;1.00
56308;DHT22;42217;50.422;7.210;2023-04-03T14:51:17;17.20;1.00
56308;DHT22;42217;50.422;7.210;2023-04-03T14:53:44;17.40;1.00
56308;DHT22;42217;50.422;7.210;2023-04-03T14:56:28;17.60;1.00
56308;DHT22;42217;50.422;7.210;2023-04-03T14:58:59;18.10;1.00
56308;DHT22;42217;50.422;7.210;2023-04-03T15:01:27;18.60;1.00
56308;DHT22;42217;50.422;7.210;2023-04-03T15:03:53;18.20;1.00
56308;DHT22;42217;50.422;7.210;2023-04-03T15:06:20;17.90;1.00
56308;DHT22;42217;50.422;7.210;2023-04-03T15:08:47;16.90;1.00
56308;DHT22;42217;50.422;7.210;2023-04-03T15:11:14;16.70;1.00
56308;DHT22;42217;50.422;7.210;2023-04-03T15:13:40;17.00;1.00
56308;DHT22;42217;50.422;7.210;2023-04-03T15:16:14;17.70;1.00
56308;DHT22;42217;50.422;7.210;2023-04-03T15:18:41;18.20;1.00
56308;DHT22;42217;50.422;7.210;2023-04-03T15:21:07;18.40;1.00
56308;DHT22;42217;50.422;7.210;2023-04-03T15:23:33;18.60;1.00
56308;DHT22;42217;50.422;7.210;2023-04-03T15:25:58;18.40;1.00
56308;DHT22;42217;50.422;7.210;2023-04-03T15:28:37;17.90;1.00
56308;DHT22;42217;50.422;7.210;2023-04-03T15:31:05;18.00;1.00
56308;DHT22;42217;50.422;7.210;2023-04-03T15:33:31;18.40;1.00
56308;DHT22;42217;50.422;7.210;2023-04-03T15:35:58;18.10;1.00
56308;DHT22;42217;50.422;7.210;2023-04-03T15:38:24;17.80;1.00
56308;DHT22;42217;50.422;7.210;2023-04-03T15:40:50;17.60;1.00
56308;DHT22;42217;50.422;7.210;2023-04-03T15:43:16;17.80;1.00
56308;DHT22;42217;50.422;7.210;2023-04-03T15:45:43;18.10;1.00
56308;DHT22;42217;50.422;7.210;2023-04-03T15:48:10;18.20;1.00
56308;DHT22;42217;50.422;7.210;2023-04-03T15:50:36;18.80;1.00
56308;DHT22;42217;50.422;7.210;2023-04-03T15:53:02;18.90;1.00
56308;DHT22;42217;50.422;7.210;2023-04-03T15:55:29;19.00;1.00
56308;DHT22;42217;50.422;7.210;2023-04-03T15:57:55;18.30;1.00
56308;DHT22;42217;50.422;7.210;2023-04-03T16:00:22;18.30;1.00
56308;DHT22;42217;50.422;7.210;2023-04-03T16:02:51;18.40;1.00
56308;DHT22;42217;50.422;7.210;2023-04-03T16:05:18;18.00;1.00
56308;DHT22;42217;50.422;7.210;2023-04-03T16:07:45;17.90;1.00
56308;DHT22;42217;50.422;7.210;2023-04-03T16:10:14;18.20;1.00
56308;DHT22;42217;50.422;7.210;2023-04-03T16:12:40;18.10;1.00
56308;DHT22;42217;50.422;7.210;2023-04-03T16:15:07;17.80;1.00
56308;DHT22;42217;50.422;7.210;2023-04-03T16:17:34;18.00;1.00
56308;DHT22;42217;50.422;7.210;2023-04-03T16:20:00;17.60;1.00
56308;DHT22;42217;50.422;7.210;2023-04-03T16:22:27;17.90;1.00
56308;DHT22;42217;50.422;7.210;2023-04-03T16:24:54;18.20;1.00
56308;DHT22;42217;50.422;7.210;2023-04-03T16:27:21;17.40;1.00
56308;DHT22;42217;50.422;7.210;2023-04-03T16:29:47;17.20;1.00
56308;DHT22;42217;50.422;7.210;2023-04-03T16:32:13;17.20;1.00
56308;DHT22;42217;50.422;7.210;2023-04-03T16:34:39;17.50;1.00
56308;DHT22;42217;50.422;7.210;2023-04-03T16:37:06;17.00;1.00
56308;DHT22;42217;50.422;7.210;2023-04-03T16:39:34;16.50;1.00
56308;DHT22;42217;50.422;7.210;2023-04-03T16:42:01;16.20;1.00
56308;DHT22;42217;50.422;7.210;2023-04-03T16:44:26;15.90;1.00
56308;DHT22;42217;50.422;7.210;2023-04-03T16:46:52;15.40;1.00
56308;DHT22;42217;50.422;7.210;2023-04-03T16:49:18;14.60;1.00
56308;DHT22;42217;50.422;7.210;2023-04-03T16:51:44;14.40;1.00
56308;DHT22;42217;50.422;7.210;2023-04-03T16:54:10;14.00;1.00
56308;DHT22;42217;50.422;7.210;2023-04-03T16:56:38;13.80;1.00
56308;DHT22;42217;50.422;7.210;2023-04-03T16:59:04;13.60;1.00
56308;DHT22;42217;50.422;7.210;2023-04-03T17:01:30;13.30;1.00
56308;DHT22;42217;50.422;7.210;2023-04-03T17:03:56;13.20;1.00
56308;DHT22;42217;50.422;7.210;2023-04-03T17:06:22;13.00;1.00
56308;DHT22;42217;50.422;7.210;2023-04-03T17:08:50;12.40;1.00
56308;DHT22;42217;50.422;7.210;2023-04-03T17:11:16;12.30;1.00
56308;DHT22;42217;50.422;7.210;2023-04-03T17:13:42;11.90;1.00
56308;DHT22;42217;50.422;7.210;2023-04-03T17:16:11;11.50;1.00
56308;DHT22;42217;50.422;7.210;2023-04-03T17:18:38;11.30;5.40
56308;DHT22;42217;50.422;7.210;2023-04-03T17:21:05;10.00;99.20
56308;DHT22;42217;50.422;7.210;2023-04-03T17:23:31;8.70;1.00
56308;DHT22;42217;50.422;7.210;2023-04-03T17:26:03;7.90;99.90
56308;DHT22;42217;50.422;7.210;2023-04-03T17:28:29;7.20;99.90
56308;DHT22;42217;50.422;7.210;2023-04-03T17:30:56;6.90;99.90
56308;DHT22;42217;50.422;7.210;2023-04-03T17:33:23;6.50;1.00
56308;DHT22;42217;50.422;7.210;2023-04-03T17:35:50;6.20;3.70
56308;DHT22;42217;50.422;7.210;2023-04-03T17:38:16;5.90;1.00